createdAt,value
2022-10-09T00:03:31.586Z,18.9
2022-10-09T00:09:08.278Z,19
2022-10-09T00:14:46.336Z,19
2022-10-09T00:20:23.454Z,19
2022-10-09T00:26:00.381Z,18.9
2022-10-09T00:31:26.193Z,18.9
2022-10-09T00:37:03.974Z,18.9
2022-10-09T00:42:24.604Z,18.9
2022-10-09T00:48:02.674Z,18.9
2022-10-09T00:53:41.118Z,18.9
2022-10-09T00:59:18.272Z,18.9
2022-10-09T01:04:56.121Z,18.9
2022-10-09T01:10:33.524Z,18.9
2022-10-09T01:16:10.576Z,18.9
2022-10-09T01:21:48.273Z,18.9
2022-10-09T01:27:09.639Z,18.9
2022-10-09T01:32:46.669Z,18.9
2022-10-09T01:38:08.573Z,18.9
2022-10-09T01:43:45.907Z,18.9
2022-10-09T01:49:07.796Z,18.9
2022-10-09T01:54:30.438Z,18.9
2022-10-09T02:00:07.919Z,18.9
2022-10-09T02:05:29.273Z,18.9
2022-10-09T02:11:06.246Z,18.9
2022-10-09T02:16:29.426Z,18.9
2022-10-09T02:22:10.625Z,18.9
2022-10-09T02:27:48.545Z,18.9
2022-10-09T02:33:31.558Z,18.9
2022-10-09T02:39:06.881Z,18.9
2022-10-09T02:44:44.056Z,18.9
2022-10-09T02:50:20.687Z,18.9
2022-10-09T02:55:41.627Z,18.9
2022-10-09T03:01:23.357Z,18.9
2022-10-09T03:06:46.429Z,18.9
2022-10-09T03:12:07.092Z,18.9
2022-10-09T03:17:13.742Z,18.9
2022-10-09T03:22:36.217Z,18.9
2022-10-09T03:27:56.231Z,18.9
2022-10-09T03:33:32.657Z,18.9
2022-10-09T03:38:55.122Z,18.9
2022-10-09T03:43:44.473Z,18.9
2022-10-09T03:48:51.366Z,18.9
2022-10-09T03:54:13.672Z,18.9
2022-10-09T03:59:19.123Z,18.8
2022-10-09T04:04:41.935Z,18.9
2022-10-09T04:10:03.712Z,18.9
2022-10-09T04:15:24.133Z,18.9
2022-10-09T04:20:46.424Z,18.8
2022-10-09T04:25:53.352Z,18.8
2022-10-09T04:31:15.270Z,18.8
2022-10-09T04:36:21.703Z,18.8
2022-10-09T04:41:43.639Z,18.8
2022-10-09T04:47:07.073Z,18.8
2022-10-09T04:52:30.085Z,18.8
2022-10-09T04:57:56.446Z,18.8
2022-10-09T05:03:35.177Z,18.8
2022-10-09T05:09:12.903Z,18.8
2022-10-09T05:14:49.889Z,18.8
2022-10-09T05:20:58.719Z,18.8
2022-10-09T05:26:24.001Z,18.8
2022-10-09T05:32:06.020Z,18.8
2022-10-09T05:37:43.540Z,18.8
2022-10-09T05:43:22.011Z,18.8
2022-10-09T05:48:59.648Z,18.8
2022-10-09T05:54:36.942Z,18.8
2022-10-09T06:00:18.090Z,18.8
2022-10-09T06:05:57.122Z,18.8
2022-10-09T06:11:39.230Z,18.8
2022-10-09T06:17:17.524Z,18.8
2022-10-09T06:22:58.869Z,18.8
2022-10-09T06:28:41.209Z,18.8
2022-10-09T06:34:19.809Z,18.8
2022-10-09T06:40:02.674Z,18.8
2022-10-09T06:45:40.342Z,18.8
2022-10-09T06:51:18.101Z,18.8
2022-10-09T06:56:55.950Z,18.8
2022-10-09T07:02:33.832Z,18.8
2022-10-09T07:08:12.336Z,18.8
2022-10-09T07:13:50.044Z,18.8
2022-10-09T07:19:28.021Z,18.8
2022-10-09T07:25:09.371Z,18.8
2022-10-09T07:30:47.826Z,18.8
2022-10-09T07:36:26.021Z,18.8
2022-10-09T07:42:03.384Z,18.8
2022-10-09T07:47:41.870Z,18.8
2022-10-09T07:53:18.732Z,18.8
2022-10-09T07:58:41.352Z,18.8
2022-10-09T08:04:23.145Z,18.8
2022-10-09T08:10:04.190Z,18.8
2022-10-09T08:15:43.046Z,18.8
2022-10-09T08:21:21.315Z,18.8
2022-10-09T08:26:57.804Z,18.8
2022-10-09T08:32:40.342Z,18.8
2022-10-09T08:38:37.864Z,18.8
2022-10-09T08:44:06.742Z,18.8
2022-10-09T08:49:28.940Z,18.8
2022-10-09T08:54:51.301Z,18.8
2022-10-09T09:00:28.209Z,18.8
2022-10-09T09:06:07.392Z,18.9
2022-10-09T09:11:30.184Z,18.9
2022-10-09T09:17:07.291Z,18.8
2022-10-09T09:22:29.528Z,18.9
2022-10-09T09:27:52.363Z,18.9
2022-10-09T09:33:17.474Z,18.9
2022-10-09T09:39:02.633Z,18.9
2022-10-09T09:45:24.458Z,18.9
2022-10-09T09:51:26.658Z,18.9
2022-10-09T09:57:12.292Z,18.9
2022-10-09T10:02:06.803Z,18.9
2022-10-09T10:07:30.043Z,18.9
2022-10-09T10:12:56.119Z,18.9
2022-10-09T10:18:23.824Z,18.9
2022-10-09T10:23:45.834Z,18.9
2022-10-09T10:29:12.066Z,18.9
2022-10-09T10:34:34.105Z,18.9
2022-10-09T10:40:12.036Z,18.9
2022-10-09T10:45:33.932Z,19
2022-10-09T10:50:58.265Z,19
2022-10-09T10:56:38.075Z,19
2022-10-09T11:02:00.560Z,19
2022-10-09T11:07:29.762Z,19
2022-10-09T11:13:11.104Z,19.1
2022-10-09T11:18:35.953Z,19.1
2022-10-09T11:23:45.747Z,19.1
2022-10-09T11:29:08.118Z,19.1
2022-10-09T11:34:46.247Z,19
2022-10-09T11:40:08.973Z,19.1
2022-10-09T11:45:22.985Z,19.1
2022-10-09T11:50:47.546Z,19.1
2022-10-09T11:56:09.495Z,19.1
2022-10-09T12:01:31.564Z,19.1
2022-10-09T12:07:09.266Z,19.1
2022-10-09T12:12:35.242Z,19.1
2022-10-09T12:18:13.111Z,19.1
2022-10-09T12:24:18.606Z,19.1
2022-10-09T12:29:40.345Z,19.2
2022-10-09T12:35:18.773Z,19.1
2022-10-09T12:40:55.490Z,19.1
2022-10-09T12:46:40.633Z,19.2
2022-10-09T12:52:17.720Z,19.2
2022-10-09T12:57:57.999Z,19.2
2022-10-09T13:03:37.127Z,19.2
2022-10-09T13:09:14.206Z,19.2
2022-10-09T13:14:51.558Z,19.2
2022-10-09T13:20:30.270Z,19.2
2022-10-09T13:26:11.252Z,19.2
2022-10-09T13:31:49.606Z,19.2
2022-10-09T13:37:27.303Z,19.2
2022-10-09T13:43:05.916Z,19.3
2022-10-09T13:48:47.413Z,19.3
2022-10-09T13:54:26.010Z,19.3
2022-10-09T14:00:04.785Z,19.3
2022-10-09T14:05:43.052Z,19.3
2022-10-09T14:11:21.275Z,19.4
2022-10-09T14:16:58.099Z,19.4
2022-10-09T14:22:38.833Z,19.4
2022-10-09T14:28:17.357Z,19.4
2022-10-09T14:33:54.962Z,19.4
2022-10-09T14:39:54.926Z,19.5
2022-10-09T14:45:33.342Z,19.5
2022-10-09T14:50:54.894Z,19.4
2022-10-09T14:56:31.724Z,19.5
2022-10-09T15:02:09.160Z,19.4
2022-10-09T15:07:47.829Z,19.5
2022-10-09T15:13:25.640Z,19.5
2022-10-09T15:19:07.877Z,19.5
2022-10-09T15:24:45.672Z,19.4
2022-10-09T15:30:24.739Z,19.4
2022-10-09T15:36:04.243Z,19.4
2022-10-09T15:41:45.515Z,19.4
2022-10-09T15:47:39.536Z,19.4
2022-10-09T15:53:13.557Z,19.4
2022-10-09T15:58:53.269Z,19.4
2022-10-09T16:04:32.138Z,19.4
2022-10-09T16:10:09.563Z,19.4
2022-10-09T16:15:56.346Z,19.4
2022-10-09T16:21:21.795Z,19.4
2022-10-09T16:27:01.535Z,19.4
2022-10-09T16:32:23.331Z,19.4
2022-10-09T16:37:45.527Z,19.4
2022-10-09T16:43:54.120Z,19.4
2022-10-09T16:49:18.720Z,19.4
2022-10-09T16:54:42.964Z,19.4
2022-10-09T17:00:06.265Z,19.4
2022-10-09T17:05:43.982Z,19.4
2022-10-09T17:11:26.682Z,19.3
2022-10-09T17:16:51.304Z,19.4
2022-10-09T17:22:28.672Z,19.4
2022-10-09T17:27:51.440Z,19.4
2022-10-09T17:33:36.009Z,19.4
2022-10-09T17:39:13.547Z,19.3
2022-10-09T17:44:40.740Z,19.3
2022-10-09T17:49:52.223Z,19.3
2022-10-09T17:55:18.878Z,19.4
2022-10-09T18:00:41.127Z,19.4
2022-10-09T18:06:19.650Z,19.4
2022-10-09T18:11:26.198Z,19.3
2022-10-09T18:16:53.087Z,19.4
2022-10-09T18:22:15.892Z,19.3
2022-10-09T18:27:53.651Z,19.3
2022-10-09T18:33:20.884Z,19.3
2022-10-09T18:39:00.898Z,19.3
2022-10-09T18:44:38.266Z,19.3
2022-10-09T18:50:16.581Z,19.3
2022-10-09T18:55:58.036Z,19.3
2022-10-09T19:01:39.798Z,19.3
2022-10-09T19:07:21.431Z,19.3
2022-10-09T19:13:00.157Z,19.3
2022-10-09T19:18:38.368Z,19.3
2022-10-09T19:24:20.125Z,19.3
2022-10-09T19:29:57.861Z,19.3
2022-10-09T19:35:38.163Z,19.3
2022-10-09T19:41:20.593Z,19.3
2022-10-09T19:46:42.739Z,19.3
2022-10-09T19:52:24.380Z,19.3
2022-10-09T19:57:45.519Z,19.3
2022-10-09T20:03:23.218Z,19.3
2022-10-09T20:08:48.838Z,19.3
2022-10-09T20:14:29.375Z,19.3
2022-10-09T20:19:52.128Z,19.3
2022-10-09T20:25:13.363Z,19.3
2022-10-09T20:30:56.296Z,19.3
2022-10-09T20:36:20.245Z,19.3
2022-10-09T20:42:01.836Z,19.3
2022-10-09T20:47:23.899Z,19.3
2022-10-09T20:53:01.588Z,19.3
2022-10-09T20:58:27.923Z,19.3
2022-10-09T21:03:34.896Z,19.4
2022-10-09T21:08:57.934Z,19.4
2022-10-09T21:14:36.849Z,19.4
2022-10-09T21:19:58.947Z,19.4
2022-10-09T21:25:42.585Z,19.3
2022-10-09T21:31:09.803Z,19.3
2022-10-09T21:37:08.772Z,19.4
2022-10-09T21:42:46.943Z,19.4
2022-10-09T21:48:23.924Z,19.4
2022-10-09T21:54:00.780Z,19.4
2022-10-09T21:59:24.981Z,19.4
2022-10-09T22:05:02.277Z,19.4
2022-10-09T22:10:40.971Z,19.4
2022-10-09T22:16:07.650Z,19.4
2022-10-09T22:21:44.317Z,19.4
2022-10-09T22:27:22.723Z,19.4
2022-10-09T22:33:01.069Z,19.4
2022-10-09T22:38:37.504Z,19.3
2022-10-09T22:44:14.450Z,19.4
2022-10-09T22:49:36.163Z,19.4
2022-10-09T22:54:57.109Z,19.4
2022-10-09T23:00:34.066Z,19.4
2022-10-09T23:06:11.849Z,19.4
2022-10-09T23:11:33.885Z,19.4
2022-10-09T23:16:55.826Z,19.4
2022-10-09T23:22:18.972Z,19.4
2022-10-09T23:27:56.154Z,19.4
2022-10-09T23:33:33.654Z,19.3
2022-10-09T23:39:10.630Z,19.4
2022-10-09T23:44:37.734Z,19.3
2022-10-09T23:50:14.538Z,19.4
2022-10-09T23:55:37.357Z,19.3
